createdAt,value
2023-05-12T00:00:15.154Z,49.93
2023-05-12T00:03:04.658Z,49.91
2023-05-12T00:05:32.432Z,49.99
2023-05-12T00:07:59.847Z,49.96
2023-05-12T00:10:28.662Z,49.88
2023-05-12T00:12:56.069Z,50.28
2023-05-12T00:15:23.685Z,50.07
2023-05-12T00:17:52.482Z,49.92
2023-05-12T00:20:20.452Z,50.08
2023-05-12T00:22:47.986Z,49.80
2023-05-12T00:25:15.536Z,50.33
2023-05-12T00:27:42.798Z,50.16
2023-05-12T00:30:11.728Z,50.59
2023-05-12T00:32:47.863Z,50.99
2023-05-12T00:35:17.167Z,51.18
2023-05-12T00:37:45.630Z,51.19
2023-05-12T00:40:13.257Z,51.58
2023-05-12T00:42:40.715Z,51.71
2023-05-12T00:45:09.305Z,51.97
2023-05-12T00:47:37.454Z,52.21
2023-05-12T00:50:06.939Z,52.21
2023-05-12T00:52:34.725Z,52.26
2023-05-12T00:55:03.647Z,52.40
2023-05-12T00:57:31.528Z,52.61
2023-05-12T00:59:59.159Z,52.98
2023-05-12T01:02:26.563Z,53.37
2023-05-12T01:04:54.273Z,53.68
2023-05-12T01:07:26.521Z,53.66
2023-05-12T01:09:58.190Z,54.05
2023-05-12T01:12:28.149Z,54.24
2023-05-12T01:14:57.529Z,54.64
2023-05-12T01:17:34.499Z,55.11
2023-05-12T01:20:08.438Z,54.99
2023-05-12T01:22:38.219Z,55.44
2023-05-12T01:25:12.153Z,56.03
2023-05-12T01:27:42.107Z,56.16
2023-05-12T01:30:13.491Z,56.67
2023-05-12T01:32:42.166Z,57.16
2023-05-12T01:35:10.050Z,57.33
2023-05-12T01:37:37.610Z,57.42
2023-05-12T01:40:05.922Z,57.92
2023-05-12T01:42:33.380Z,58.55
2023-05-12T01:45:00.955Z,58.65
2023-05-12T01:47:28.312Z,58.68
2023-05-12T01:49:55.948Z,58.99
2023-05-12T01:52:23.290Z,58.85
2023-05-12T01:54:51.536Z,59.03
2023-05-12T01:57:19.121Z,59.27
2023-05-12T01:59:46.681Z,59.36
2023-05-12T02:02:14.116Z,59.34
2023-05-12T02:04:41.939Z,59.34
2023-05-12T02:07:09.351Z,59.34
2023-05-12T02:09:36.992Z,59.60
2023-05-12T02:12:05.008Z,59.83
2023-05-12T02:14:32.650Z,60.03
2023-05-12T02:16:59.939Z,60.07
2023-05-12T02:19:29.861Z,60.11
2023-05-12T02:21:58.249Z,60.40
2023-05-12T02:24:25.913Z,60.17
2023-05-12T02:26:53.144Z,60.25
2023-05-12T02:29:20.741Z,60.27
2023-05-12T02:31:48.032Z,60.39
2023-05-12T02:34:15.704Z,60.28
2023-05-12T02:36:43.026Z,60.60
2023-05-12T02:39:10.687Z,60.81
2023-05-12T02:41:37.984Z,61.16
2023-05-12T02:44:05.679Z,61.45
2023-05-12T02:46:32.974Z,61.59
2023-05-12T02:49:00.517Z,61.45
2023-05-12T02:51:27.973Z,61.63
2023-05-12T02:53:55.492Z,61.82
2023-05-12T02:56:23.008Z,61.94
2023-05-12T02:58:50.767Z,62.24
2023-05-12T03:01:18.096Z,62.27
2023-05-12T03:03:46.363Z,62.63
2023-05-12T03:06:14.111Z,62.77
2023-05-12T03:08:41.831Z,62.99
2023-05-12T03:11:09.360Z,63.00
2023-05-12T03:13:37.016Z,63.03
2023-05-12T03:16:05.955Z,63.05
2023-05-12T03:18:33.583Z,62.97
2023-05-12T03:21:02.267Z,63.11
2023-05-12T03:23:29.962Z,63.34
2023-05-12T03:25:57.289Z,63.52
2023-05-12T03:28:24.971Z,63.90
2023-05-12T03:30:52.260Z,64.15
2023-05-12T03:33:19.862Z,64.01
2023-05-12T03:35:47.424Z,64.01
2023-05-12T03:38:15.029Z,64.28
2023-05-12T03:40:42.453Z,64.21
2023-05-12T03:43:10.004Z,64.38
2023-05-12T03:45:37.315Z,64.57
2023-05-12T03:48:05.287Z,64.50
2023-05-12T03:50:32.587Z,64.65
2023-05-12T03:53:03.575Z,64.60
2023-05-12T03:55:30.810Z,64.49
2023-05-12T03:57:58.373Z,64.51
2023-05-12T04:00:25.686Z,64.39
2023-05-12T04:02:53.295Z,63.85
2023-05-12T04:05:20.845Z,63.79
2023-05-12T04:07:48.540Z,63.71
2023-05-12T04:10:15.962Z,63.50
2023-05-12T04:12:43.584Z,63.50
2023-05-12T04:15:11.677Z,63.36
2023-05-12T04:17:39.298Z,63.32
2023-05-12T04:20:08.169Z,63.19
2023-05-12T04:22:38.037Z,63.24
2023-05-12T04:25:05.940Z,63.12
2023-05-12T04:27:33.537Z,63.11
2023-05-12T04:30:00.868Z,62.78
2023-05-12T04:32:29.081Z,62.71
2023-05-12T04:37:24.416Z,62.62
2023-05-12T04:39:51.749Z,62.71
2023-05-12T04:42:19.402Z,62.93
2023-05-12T04:44:46.831Z,62.50
2023-05-12T04:47:14.459Z,62.15
2023-05-12T04:49:41.716Z,61.87
2023-05-12T04:52:09.357Z,61.91
2023-05-12T04:54:36.747Z,62.17
2023-05-12T04:57:04.846Z,61.92
2023-05-12T04:59:32.702Z,61.62
2023-05-12T05:02:00.484Z,61.27
2023-05-12T05:04:28.105Z,61.64
2023-05-12T05:06:55.806Z,60.63
2023-05-12T05:09:23.142Z,60.57
2023-05-12T05:14:41.545Z,59.92
2023-05-12T05:17:11.398Z,60.18
2023-05-12T05:19:53.115Z,59.90
2023-05-12T05:22:25.709Z,59.70
2023-05-12T05:24:53.090Z,59.97
2023-05-12T05:27:20.901Z,60.36
2023-05-12T05:29:49.486Z,60.57
2023-05-12T05:32:17.455Z,60.27
2023-05-12T05:34:44.822Z,59.84
2023-05-12T05:37:13.025Z,58.73
2023-05-12T05:39:40.510Z,58.18
2023-05-12T05:42:08.067Z,58.31
2023-05-12T05:44:36.025Z,58.89
2023-05-12T05:47:04.160Z,57.77
2023-05-12T05:49:31.568Z,57.51
2023-05-12T05:51:59.183Z,56.78
2023-05-12T05:54:26.924Z,57.04
2023-05-12T05:56:54.641Z,57.06
2023-05-12T05:59:29.305Z,57.00
2023-05-12T06:01:56.953Z,56.43
2023-05-12T06:04:24.396Z,56.34
2023-05-12T06:06:52.097Z,56.49
2023-05-12T06:09:20.047Z,56.19
2023-05-12T06:11:47.658Z,55.29
2023-05-12T06:14:15.002Z,55.65
2023-05-12T06:16:42.630Z,55.22
2023-05-12T06:19:10.054Z,55.92
2023-05-12T06:21:37.920Z,55.50
2023-05-12T06:24:05.398Z,54.78
2023-05-12T06:26:34.049Z,53.93
2023-05-12T06:29:02.270Z,53.90
2023-05-12T06:31:30.155Z,53.66
2023-05-12T06:33:57.374Z,53.73
2023-05-12T06:36:25.020Z,53.73
2023-05-12T06:38:52.396Z,53.86
2023-05-12T06:41:20.039Z,53.02
2023-05-12T06:43:47.341Z,52.86
2023-05-12T06:46:15.390Z,52.14
2023-05-12T06:48:42.742Z,52.35
2023-05-12T06:51:10.427Z,51.61
2023-05-12T06:53:38.202Z,51.05
2023-05-12T06:56:06.273Z,50.65
2023-05-12T06:58:33.881Z,50.36
2023-05-12T07:01:01.446Z,51.02
2023-05-12T07:03:32.915Z,50.35
2023-05-12T07:06:01.043Z,49.84
2023-05-12T07:08:28.450Z,49.77
2023-05-12T07:10:56.575Z,48.50
2023-05-12T07:13:23.862Z,46.83
2023-05-12T07:15:51.541Z,46.22
2023-05-12T07:18:18.828Z,44.73
2023-05-12T07:20:46.748Z,44.69
2023-05-12T07:23:14.113Z,45.62
2023-05-12T07:25:41.667Z,45.54
2023-05-12T07:28:09.080Z,45.70
2023-05-12T07:30:37.723Z,44.96
2023-05-12T07:33:06.605Z,45.11
2023-05-12T07:35:34.425Z,44.61
2023-05-12T07:38:03.368Z,44.99
2023-05-12T07:40:30.929Z,44.14
2023-05-12T07:42:58.278Z,43.58
2023-05-12T07:45:25.916Z,43.20
2023-05-12T07:47:53.362Z,43.20
2023-05-12T07:50:21.476Z,41.99
2023-05-12T07:52:53.783Z,41.61
2023-05-12T07:55:23.013Z,41.06
2023-05-12T07:57:51.062Z,40.97
2023-05-12T08:00:19.528Z,40.74
2023-05-12T08:02:47.511Z,41.38
2023-05-12T08:05:15.766Z,42.26
2023-05-12T08:07:44.021Z,41.61
2023-05-12T08:10:16.046Z,41.76
2023-05-12T08:12:43.917Z,41.52
2023-05-12T08:15:11.632Z,40.95
2023-05-12T08:17:38.993Z,40.55
2023-05-12T08:20:07.486Z,39.90
2023-05-12T08:22:34.750Z,40.33
2023-05-12T08:25:02.434Z,39.88
2023-05-12T08:27:29.740Z,39.71
2023-05-12T08:29:57.429Z,40.08
2023-05-12T08:32:24.933Z,39.00
2023-05-12T08:34:52.777Z,38.94
2023-05-12T08:37:20.991Z,38.91
2023-05-12T08:39:48.560Z,38.26
2023-05-12T08:42:40.625Z,36.79
2023-05-12T08:45:10.596Z,38.01
2023-05-12T08:47:38.695Z,38.66
2023-05-12T08:50:10.190Z,36.48
2023-05-12T08:52:37.492Z,36.46
2023-05-12T08:55:05.802Z,36.65
2023-05-12T08:57:34.131Z,36.20
2023-05-12T09:00:04.869Z,36.54
2023-05-12T09:02:41.309Z,35.80
2023-05-12T09:05:16.318Z,35.10
2023-05-12T09:07:48.041Z,33.85
2023-05-12T09:10:32.946Z,33.83
2023-05-12T09:13:26.957Z,33.92
2023-05-12T09:15:59.013Z,33.94
2023-05-12T09:18:26.402Z,34.81
2023-05-12T09:20:53.926Z,35.41
2023-05-12T09:23:24.733Z,34.30
2023-05-12T09:26:01.804Z,30.86
2023-05-12T09:28:39.177Z,25.38
2023-05-12T09:31:23.132Z,19.20
2023-05-12T09:33:52.284Z,15.93
2023-05-12T09:36:22.527Z,13.62
2023-05-12T09:39:04.696Z,11.67
2023-05-12T09:41:39.985Z,10.23
2023-05-12T09:44:09.786Z,8.76
2023-05-12T09:46:40.078Z,9.44
2023-05-12T09:49:07.988Z,9.12
2023-05-12T09:51:35.552Z,8.34
2023-05-12T09:54:04.626Z,8.10
2023-05-12T09:56:38.577Z,7.84
2023-05-12T09:59:06.380Z,7.99
2023-05-12T10:01:34.993Z,7.82
2023-05-12T10:04:07.717Z,7.88
2023-05-12T10:06:45.681Z,7.50
2023-05-12T10:09:31.627Z,7.23
2023-05-12T10:12:01.000Z,7.16
2023-05-12T10:14:29.020Z,8.33
2023-05-12T10:16:59.444Z,7.75
2023-05-12T10:19:29.685Z,5.86
2023-05-12T10:21:58.324Z,5.81
2023-05-12T10:24:27.598Z,5.01
2023-05-12T10:26:56.790Z,5.18
2023-05-12T10:29:30.477Z,5.22
2023-05-12T10:32:01.147Z,6.52
2023-05-12T10:34:36.832Z,5.37
2023-05-12T10:37:11.404Z,6.18
2023-05-12T10:39:49.732Z,9.80
2023-05-12T10:42:25.596Z,9.84
2023-05-12T10:44:55.466Z,12.78
2023-05-12T10:47:37.199Z,14.27
2023-05-12T10:50:05.764Z,14.53
2023-05-12T10:52:33.731Z,16.35
2023-05-12T10:55:04.197Z,16.81
2023-05-12T10:57:33.514Z,18.05
2023-05-12T11:00:03.557Z,18.44
2023-05-12T11:02:36.323Z,18.38
2023-05-12T11:05:14.360Z,19.69
2023-05-12T11:07:50.745Z,20.22
2023-05-12T11:10:19.635Z,20.57
2023-05-12T11:12:49.990Z,21.82
2023-05-12T11:15:18.225Z,21.40
2023-05-12T11:17:46.824Z,21.30
2023-05-12T11:20:26.471Z,21.93
2023-05-12T11:22:55.235Z,22.42
2023-05-12T11:25:22.745Z,22.03
2023-05-12T11:27:50.948Z,21.62
2023-05-12T11:30:18.364Z,21.79
2023-05-12T11:32:46.208Z,21.62
2023-05-12T11:35:23.408Z,21.48
2023-05-12T11:37:51.121Z,22.20
2023-05-12T11:40:23.324Z,22.54
2023-05-12T11:42:52.986Z,22.25
2023-05-12T11:45:30.755Z,21.76
2023-05-12T11:48:10.040Z,22.28
2023-05-12T11:50:43.735Z,22.87
2023-05-12T11:53:19.379Z,23.37
2023-05-12T11:55:55.928Z,23.97
2023-05-12T11:58:30.700Z,24.20
2023-05-12T12:01:11.199Z,24.82
2023-05-12T12:03:49.931Z,24.87
2023-05-12T12:06:18.270Z,25.10
2023-05-12T12:08:54.645Z,24.33
2023-05-12T12:11:24.278Z,23.85
2023-05-12T12:13:57.169Z,23.71
2023-05-12T12:16:31.956Z,23.36
2023-05-12T12:18:59.729Z,23.87
2023-05-12T12:21:27.138Z,23.72
2023-05-12T12:23:54.778Z,24.12
2023-05-12T12:26:23.821Z,24.41
2023-05-12T12:28:51.698Z,24.44
2023-05-12T12:31:19.127Z,24.68
2023-05-12T12:33:46.679Z,25.39
2023-05-12T12:36:14.018Z,25.48
2023-05-12T12:38:41.779Z,26.22
2023-05-12T12:41:09.145Z,26.14
2023-05-12T12:43:36.723Z,26.80
2023-05-12T12:46:04.047Z,27.39
2023-05-12T12:48:32.278Z,27.52
2023-05-12T12:51:01.322Z,27.46
2023-05-12T12:53:28.992Z,27.96
2023-05-12T12:55:56.624Z,27.95
2023-05-12T12:58:25.260Z,27.70
2023-05-12T13:00:52.705Z,27.42
2023-05-12T13:03:23.163Z,28.07
2023-05-12T13:05:50.974Z,27.06
2023-05-12T13:08:18.519Z,27.08
2023-05-12T13:10:45.982Z,27.34
2023-05-12T13:13:13.665Z,27.02
2023-05-12T13:15:42.182Z,27.68
2023-05-12T13:18:10.113Z,27.81
2023-05-12T13:20:37.521Z,27.59
2023-05-12T13:23:05.403Z,27.54
2023-05-12T13:25:32.656Z,27.23
2023-05-12T13:28:00.215Z,27.78
2023-05-12T13:30:27.979Z,27.89
2023-05-12T13:32:55.731Z,27.50
2023-05-12T13:35:23.333Z,27.22
2023-05-12T13:37:51.080Z,27.25
2023-05-12T13:40:18.587Z,27.43
2023-05-12T13:42:46.567Z,27.45
2023-05-12T13:45:13.882Z,27.12
2023-05-12T13:47:42.341Z,25.89
2023-05-12T13:50:09.916Z,25.40
2023-05-12T13:52:37.742Z,24.84
2023-05-12T13:55:05.559Z,25.36
2023-05-12T13:57:33.140Z,26.26
2023-05-12T14:00:00.907Z,26.08
2023-05-12T14:02:28.527Z,26.37
2023-05-12T14:04:56.670Z,26.30
2023-05-12T14:07:25.475Z,27.00
2023-05-12T14:09:52.703Z,26.47
2023-05-12T14:12:20.342Z,27.19
2023-05-12T14:14:50.091Z,27.13
2023-05-12T14:17:18.791Z,27.22
2023-05-12T14:19:47.657Z,26.95
2023-05-12T14:22:25.541Z,27.29
2023-05-12T14:24:55.604Z,27.75
2023-05-12T14:27:24.208Z,28.07
2023-05-12T14:29:51.562Z,28.48
2023-05-12T14:32:19.081Z,28.90
2023-05-12T14:34:46.352Z,29.54
2023-05-12T14:37:13.963Z,29.58
2023-05-12T14:39:41.256Z,29.03
2023-05-12T14:42:09.365Z,29.15
2023-05-12T14:44:36.684Z,28.90
2023-05-12T14:47:05.205Z,29.11
2023-05-12T14:49:32.829Z,29.20
2023-05-12T14:52:00.384Z,29.13
2023-05-12T14:54:28.695Z,29.41
2023-05-12T14:56:56.717Z,29.51
2023-05-12T14:59:24.087Z,29.18
2023-05-12T15:01:51.710Z,29.63
2023-05-12T15:04:20.268Z,29.51
2023-05-12T15:06:47.946Z,28.97
2023-05-12T15:09:15.283Z,30.03
2023-05-12T15:11:45.481Z,30.97
2023-05-12T15:14:13.031Z,30.41
2023-05-12T15:16:41.049Z,30.55
2023-05-12T15:19:08.845Z,29.93
2023-05-12T15:21:36.862Z,30.41
2023-05-12T15:24:04.582Z,30.30
2023-05-12T15:26:34.220Z,30.65
2023-05-12T15:29:02.942Z,30.49
2023-05-12T15:31:31.079Z,30.02
2023-05-12T15:33:58.434Z,29.48
2023-05-12T15:36:26.213Z,29.47
2023-05-12T15:38:53.776Z,29.80
2023-05-12T15:41:22.286Z,29.42
2023-05-12T15:43:49.653Z,29.71
2023-05-12T15:46:17.571Z,29.51
2023-05-12T15:48:51.179Z,29.56
2023-05-12T15:51:18.889Z,29.57
2023-05-12T15:53:46.327Z,29.44
2023-05-12T15:56:16.277Z,29.17
2023-05-12T15:58:45.013Z,29.16
2023-05-12T16:01:13.287Z,29.33
2023-05-12T16:03:40.834Z,28.78
2023-05-12T16:06:09.015Z,28.90
2023-05-12T16:08:36.523Z,29.22
2023-05-12T16:11:06.328Z,29.56
2023-05-12T16:13:34.097Z,29.30
2023-05-12T16:16:02.712Z,28.89
2023-05-12T16:18:31.265Z,28.69
2023-05-12T16:20:59.802Z,29.04
2023-05-12T16:23:27.092Z,29.04
2023-05-12T16:25:54.814Z,29.48
2023-05-12T16:28:22.318Z,29.21
2023-05-12T16:30:49.872Z,29.18
2023-05-12T16:33:17.234Z,29.45
2023-05-12T16:35:44.887Z,29.54
2023-05-12T16:38:13.487Z,29.48
2023-05-12T16:40:41.196Z,30.03
2023-05-12T16:43:08.588Z,30.21
2023-05-12T16:45:36.210Z,30.02
2023-05-12T16:48:03.963Z,29.76
2023-05-12T16:50:32.418Z,29.84
2023-05-12T16:52:59.812Z,30.21
2023-05-12T16:55:27.599Z,30.07
2023-05-12T16:57:54.930Z,30.06
2023-05-12T17:00:22.620Z,29.94
2023-05-12T17:02:50.040Z,30.40
2023-05-12T17:05:17.737Z,30.19
2023-05-12T17:07:52.618Z,30.76
2023-05-12T17:10:20.222Z,30.68
2023-05-12T17:12:47.742Z,30.64
2023-05-12T17:15:15.644Z,30.69
2023-05-12T17:17:43.008Z,31.16
2023-05-12T17:20:11.801Z,31.61
2023-05-12T17:22:42.733Z,31.25
2023-05-12T17:25:10.897Z,32.01
2023-05-12T17:27:38.248Z,31.50
2023-05-12T17:30:06.977Z,31.83
2023-05-12T17:32:36.509Z,32.08
2023-05-12T17:35:04.492Z,32.23
2023-05-12T17:37:32.018Z,32.37
2023-05-12T17:40:01.088Z,33.03
2023-05-12T17:42:31.339Z,33.18
2023-05-12T17:44:59.164Z,33.19
2023-05-12T17:47:27.775Z,33.35
2023-05-12T17:50:02.607Z,33.09
2023-05-12T17:52:31.263Z,33.70
2023-05-12T17:55:00.067Z,34.06
2023-05-12T17:57:27.419Z,34.28
2023-05-12T17:59:55.078Z,34.46
2023-05-12T18:02:22.678Z,34.83
2023-05-12T18:04:50.691Z,34.74
2023-05-12T18:07:18.157Z,34.94
2023-05-12T18:09:48.182Z,35.03
2023-05-12T18:12:17.721Z,35.19
2023-05-12T18:14:45.463Z,35.14
2023-05-12T18:17:12.933Z,35.64
2023-05-12T18:19:40.717Z,36.72
2023-05-12T18:22:08.131Z,35.91
2023-05-12T18:24:35.876Z,36.32
2023-05-12T18:27:06.319Z,36.38
2023-05-12T18:29:34.095Z,36.66
2023-05-12T18:32:01.562Z,36.82
2023-05-12T18:34:30.241Z,37.23
2023-05-12T18:36:57.486Z,37.45
2023-05-12T18:39:25.182Z,37.45
2023-05-12T18:41:54.209Z,37.83
2023-05-12T18:44:21.911Z,37.95
2023-05-12T18:46:49.243Z,38.10
2023-05-12T18:49:16.883Z,38.19
2023-05-12T18:51:44.182Z,38.29
2023-05-12T18:54:11.970Z,38.39
2023-05-12T18:56:39.355Z,38.32
2023-05-12T18:59:07.067Z,38.33
2023-05-12T19:01:34.544Z,38.77
2023-05-12T19:04:02.438Z,38.59
2023-05-12T19:06:30.175Z,38.67
2023-05-12T19:08:57.737Z,38.75
2023-05-12T19:11:25.417Z,38.88
2023-05-12T19:13:53.081Z,39.25
2023-05-12T19:16:21.593Z,38.89
2023-05-12T19:18:49.781Z,39.17
2023-05-12T19:21:18.309Z,38.93
2023-05-12T19:23:45.914Z,39.18
2023-05-12T19:26:13.231Z,38.68
2023-05-12T19:28:41.002Z,38.40
2023-05-12T19:31:08.422Z,38.23
2023-05-12T19:33:36.473Z,38.85
2023-05-12T19:36:03.976Z,38.59
2023-05-12T19:38:31.531Z,38.87
2023-05-12T19:40:59.420Z,38.83
2023-05-12T19:43:26.977Z,38.99
2023-05-12T19:45:54.815Z,39.13
2023-05-12T19:48:22.419Z,39.25
2023-05-12T19:50:49.764Z,39.45
2023-05-12T19:53:17.449Z,39.22
2023-05-12T19:55:44.795Z,39.38
2023-05-12T19:58:12.411Z,39.46
2023-05-12T20:00:39.747Z,39.63
2023-05-12T20:03:07.546Z,39.62
2023-05-12T20:05:39.075Z,39.86
2023-05-12T20:08:06.829Z,40.11
2023-05-12T20:10:34.573Z,40.12
2023-05-12T20:13:05.136Z,40.25
2023-05-12T20:15:34.332Z,40.35
2023-05-12T20:18:01.949Z,40.28
2023-05-12T20:20:29.553Z,40.48
2023-05-12T20:22:57.472Z,40.57
2023-05-12T20:25:27.101Z,40.78
2023-05-12T20:27:55.669Z,40.70
2023-05-12T20:30:23.086Z,40.67
2023-05-12T20:32:51.185Z,40.96
2023-05-12T20:35:18.738Z,41.19
2023-05-12T20:37:46.578Z,41.41
2023-05-12T20:40:14.074Z,41.40
2023-05-12T20:42:41.799Z,41.15
2023-05-12T20:45:09.672Z,41.42
2023-05-12T20:47:37.776Z,41.30
2023-05-12T20:50:07.187Z,41.47
2023-05-12T20:52:38.750Z,41.56
2023-05-12T20:55:07.251Z,41.88
2023-05-12T20:57:35.023Z,41.97
2023-05-12T21:00:02.309Z,41.91
2023-05-12T21:02:29.974Z,41.94
2023-05-12T21:04:57.542Z,42.36
2023-05-12T21:07:25.180Z,42.70
2023-05-12T21:09:52.610Z,42.44
2023-05-12T21:12:20.470Z,42.47
2023-05-12T21:14:47.707Z,42.46
2023-05-12T21:17:17.411Z,42.77
2023-05-12T21:19:44.959Z,42.88
2023-05-12T21:22:13.054Z,42.92
2023-05-12T21:24:40.802Z,42.93
2023-05-12T21:27:08.472Z,43.18
2023-05-12T21:29:36.803Z,43.07
2023-05-12T21:32:04.805Z,43.30
2023-05-12T21:34:33.791Z,43.25
2023-05-12T21:37:01.857Z,43.10
2023-05-12T21:39:29.180Z,43.33
2023-05-12T21:41:56.741Z,43.35
2023-05-12T21:44:24.073Z,43.38
2023-05-12T21:46:51.686Z,43.20
2023-05-12T21:49:19.255Z,43.20
2023-05-12T21:51:46.939Z,43.50
2023-05-12T21:54:14.178Z,43.74
2023-05-12T21:56:43.134Z,43.42
2023-05-12T21:59:10.654Z,43.44
2023-05-12T22:01:38.673Z,43.28
2023-05-12T22:04:06.089Z,43.24
2023-05-12T22:06:34.029Z,43.35
2023-05-12T22:09:02.191Z,43.27
2023-05-12T22:11:29.781Z,43.35
2023-05-12T22:13:57.388Z,43.55
2023-05-12T22:16:38.253Z,43.94
2023-05-12T22:19:17.222Z,43.69
2023-05-12T22:21:44.862Z,43.82
2023-05-12T22:24:12.160Z,43.50
2023-05-12T22:26:39.677Z,43.34
2023-05-12T22:29:07.012Z,43.51
2023-05-12T22:31:34.647Z,43.57
2023-05-12T22:34:01.892Z,43.41
2023-05-12T22:36:30.232Z,43.62
2023-05-12T22:38:57.472Z,43.50
2023-05-12T22:41:25.358Z,43.54
2023-05-12T22:43:52.668Z,43.46
2023-05-12T22:46:20.375Z,43.63
2023-05-12T22:48:47.772Z,43.79
2023-05-12T22:51:15.818Z,43.91
2023-05-12T22:53:43.037Z,43.98
2023-05-12T22:56:12.564Z,44.19
2023-05-12T22:58:39.806Z,44.14
2023-05-12T23:01:07.487Z,44.02
2023-05-12T23:03:34.825Z,44.08
2023-05-12T23:06:02.517Z,44.64
2023-05-12T23:08:31.661Z,44.76
2023-05-12T23:11:00.834Z,45.01
2023-05-12T23:13:30.904Z,45.29
2023-05-12T23:15:58.435Z,45.53
2023-05-12T23:18:25.738Z,45.53
2023-05-12T23:20:54.722Z,45.77
2023-05-12T23:23:22.057Z,46.21
2023-05-12T23:25:50.089Z,46.11
2023-05-12T23:28:17.391Z,46.66
2023-05-12T23:30:44.896Z,47.03
2023-05-12T23:33:12.298Z,47.16
2023-05-12T23:35:39.862Z,47.47
2023-05-12T23:38:07.363Z,47.70
2023-05-12T23:40:39.145Z,48.20
2023-05-12T23:43:07.176Z,48.70
2023-05-12T23:45:35.288Z,48.54
2023-05-12T23:48:02.819Z,48.71
2023-05-12T23:50:30.459Z,48.48
2023-05-12T23:52:57.763Z,48.41
2023-05-12T23:55:25.416Z,48.44
2023-05-12T23:57:52.689Z,48.73
